Time;durP1;ratioP1;P1;durP2;ratioP2;P2;SDS_P1;SDS_P2;PMS_P1;PMS_P2;Temp;Humidity;BMP_temperature;BMP_pressure;BME280_temperature;BME280_humidity;BME280_pressure;Samples;Min_cycle;Max_cycle;Signal;HPM_P1;HPM_P2
2021/03/08 00:02:17;;;;;;;25.47;16.23;;;5.30;57.00;;;;;;5036062;28;20018;-70
2021/03/08 00:04:43;;;;;;;24.87;15.60;;;5.30;56.70;;;;;;5035963;28;20064;-70
2021/03/08 00:07:09;;;;;;;21.83;14.63;;;5.30;56.80;;;;;;5035814;28;20065;-70
2021/03/08 00:09:35;;;;;;;22.43;14.53;;;5.30;57.10;;;;;;5036355;28;20021;-69
2021/03/08 00:12:00;;;;;;;26.03;15.17;;;5.20;57.20;;;;;;5036251;28;20072;-70
2021/03/08 00:14:26;;;;;;;23.33;15.30;;;5.20;57.40;;;;;;5035942;28;20500;-70
2021/03/08 00:16:52;;;;;;;23.63;14.67;;;5.20;58.00;;;;;;5035952;28;20488;-70
2021/03/08 00:19:18;;;;;;;23.57;14.77;;;5.20;58.10;;;;;;5035876;28;20184;-70
2021/03/08 00:21:46;;;;;;;24.83;14.37;;;5.20;57.30;;;;;;5035624;28;20040;-70
2021/03/08 00:24:12;;;;;;;20.60;13.63;;;5.20;57.60;;;;;;5035877;28;20488;-70
2021/03/08 00:26:38;;;;;;;21.37;13.87;;;5.20;58.30;;;;;;5035640;28;20025;-70
2021/03/08 00:29:04;;;;;;;21.40;14.57;;;5.20;58.40;;;;;;5035681;28;20409;-69
2021/03/08 00:31:29;;;;;;;21.87;13.13;;;5.20;57.80;;;;;;5035732;28;20022;-69
2021/03/08 00:33:55;;;;;;;22.23;13.93;;;5.10;57.70;;;;;;5035546;28;20477;-69
2021/03/08 00:36:20;;;;;;;23.40;14.63;;;5.10;57.70;;;;;;5035305;28;20029;-70
2021/03/08 00:38:46;;;;;;;26.07;14.87;;;5.10;57.60;;;;;;5035463;28;20029;-70
2021/03/08 00:41:12;;;;;;;20.30;14.07;;;5.10;57.30;;;;;;5035451;28;20049;-70
2021/03/08 00:43:37;;;;;;;20.40;13.73;;;5.10;57.00;;;;;;5035529;28;20025;-70
2021/03/08 00:46:03;;;;;;;22.70;14.10;;;5.10;57.00;;;;;;5035221;28;20063;-70
2021/03/08 00:48:29;;;;;;;24.03;15.23;;;5.00;57.00;;;;;;5035381;28;20068;-70
2021/03/08 00:50:54;;;;;;;29.93;17.10;;;5.00;56.50;;;;;;5034919;28;20018;-70
2021/03/08 00:53:20;;;;;;;27.63;17.00;;;5.00;56.30;;;;;;5035201;28;20091;-70
2021/03/08 00:55:45;;;;;;;26.20;14.90;;;4.90;55.90;;;;;;5035155;28;20049;-70
2021/03/08 00:58:11;;;;;;;23.10;14.83;;;4.90;55.70;;;;;;5034902;28;20508;-69
2021/03/08 01:00:37;;;;;;;27.47;15.00;;;4.90;55.50;;;;;;5034833;28;20488;-69
2021/03/08 01:03:03;;;;;;;20.27;13.97;;;4.90;55.30;;;;;;5035030;28;20025;-70
2021/03/08 01:05:29;;;;;;;25.77;14.43;;;4.80;54.90;;;;;;5034908;28;20025;-70
2021/03/08 01:07:54;;;;;;;23.53;14.63;;;4.80;54.70;;;;;;5034673;28;20429;-69
2021/03/08 01:10:27;;;;;;;21.30;13.50;;;4.70;54.50;;;;;;5034974;28;20465;-70
2021/03/08 01:12:53;;;;;;;20.95;14.02;;;4.70;54.50;;;;;;5035118;28;20041;-70
2021/03/08 01:15:19;;;;;;;23.13;14.10;;;4.60;54.20;;;;;;5034982;28;20075;-70
2021/03/08 01:17:45;;;;;;;20.83;13.53;;;4.50;54.30;;;;;;5034869;28;20025;-69
2021/03/08 01:20:17;;;;;;;23.53;14.30;;;4.50;54.50;;;;;;5034674;28;20040;-70
2021/03/08 01:22:43;;;;;;;21.50;14.10;;;4.40;54.50;;;;;;5034990;28;20068;-70
2021/03/08 01:25:29;;;;;;;21.33;13.33;;;4.40;54.60;;;;;;5034675;28;20026;-69
2021/03/08 01:27:56;;;;;;;27.13;14.20;;;4.30;54.80;;;;;;5034589;28;20105;-69
2021/03/08 01:30:26;;;;;;;25.30;15.00;;;4.30;54.90;;;;;;5034432;28;20017;-70
2021/03/08 01:32:52;;;;;;;22.63;13.40;;;4.30;54.90;;;;;;5034417;28;20508;-69
2021/03/08 01:35:20;;;;;;;22.73;14.00;;;4.30;55.10;;;;;;5034508;28;20108;-70
2021/03/08 01:37:45;;;;;;;23.87;14.90;;;4.30;55.30;;;;;;5034435;28;20033;-69
2021/03/08 01:40:13;;;;;;;26.10;15.43;;;4.20;55.30;;;;;;5034483;28;20030;-70
2021/03/08 01:42:39;;;;;;;26.37;15.10;;;4.20;55.40;;;;;;5034456;28;20057;-70
2021/03/08 01:45:07;;;;;;;23.93;14.97;;;4.20;55.50;;;;;;5033954;28;20052;-69
2021/03/08 01:47:33;;;;;;;25.67;15.50;;;4.20;55.30;;;;;;5033952;28;20441;-69
2021/03/08 01:49:59;;;;;;;22.57;14.97;;;4.20;55.80;;;;;;5034254;28;20057;-70
2021/03/08 01:52:25;;;;;;;25.30;15.47;;;4.10;56.10;;;;;;5034084;28;20383;-70
2021/03/08 01:54:53;;;;;;;29.23;15.00;;;4.10;55.90;;;;;;5033639;28;20060;-69
2021/03/08 01:57:19;;;;;;;20.87;14.63;;;4.20;56.10;;;;;;5033776;28;20037;-70
2021/03/08 01:59:45;;;;;;;25.77;14.67;;;4.20;56.00;;;;;;5030943;28;20132;-70
2021/03/08 02:02:10;;;;;;;26.33;15.00;;;4.20;55.90;;;;;;5030887;28;20507;-70
2021/03/08 02:04:36;;;;;;;25.60;15.40;;;4.20;56.10;;;;;;5032213;28;20026;-70
2021/03/08 02:07:02;;;;;;;25.13;14.03;;;4.20;56.70;;;;;;5033269;28;20026;-70
2021/03/08 02:09:27;;;;;;;19.10;13.10;;;4.20;57.50;;;;;;5033090;28;20029;-70
2021/03/08 02:12:03;;;;;;;20.40;13.17;;;4.10;57.40;;;;;;5033418;28;20037;-70
2021/03/08 02:15:06;;;;;;;20.97;12.70;;;4.10;57.30;;;;;;5033492;28;20037;-70
2021/03/08 02:17:44;;;;;;;21.05;13.55;;;4.10;57.30;;;;;;5033549;28;20371;-70
2021/03/08 02:20:24;;;;;;;20.33;12.60;;;4.20;57.20;;;;;;5033175;28;20120;-70
2021/03/08 02:23:35;;;;;;;22.53;13.40;;;4.20;57.20;;;;;;5033623;28;20493;-70
2021/03/08 02:26:50;;;;;;;19.80;12.53;;;4.20;57.30;;;;;;5001258;28;20033;-70
2021/03/08 02:29:19;;;;;;;19.93;13.30;;;4.20;57.10;;;;;;5029437;28;20488;-70
2021/03/08 02:31:46;;;;;;;17.90;12.73;;;4.20;57.60;;;;;;5033301;28;20112;-70
2021/03/08 02:34:20;;;;;;;19.40;12.43;;;4.10;58.00;;;;;;5033542;28;20029;-70
2021/03/08 02:36:49;;;;;;;20.73;13.10;;;4.10;57.70;;;;;;5032975;28;20029;-70
2021/03/08 02:39:18;;;;;;;18.33;11.63;;;4.10;57.50;;;;;;5031625;28;20371;-70
2021/03/08 02:41:48;;;;;;;17.87;11.63;;;4.10;57.30;;;;;;5033071;28;20032;-70
2021/03/08 02:44:17;;;;;;;19.27;11.80;;;4.10;57.30;;;;;;5032987;28;20034;-71
2021/03/08 02:46:47;;;;;;;23.43;12.13;;;4.10;57.30;;;;;;5033320;28;20452;-69
2021/03/08 02:49:21;;;;;;;17.93;11.90;;;4.00;57.40;;;;;;5033045;28;20021;-69
2021/03/08 02:51:57;;;;;;;19.87;12.43;;;4.00;57.40;;;;;;5032903;28;20029;-70
2021/03/08 02:54:25;;;;;;;18.83;11.13;;;4.00;57.50;;;;;;5033061;28;20046;-70
2021/03/08 02:56:53;;;;;;;19.20;11.60;;;3.90;58.40;;;;;;5033049;28;20363;-70
2021/03/08 02:59:21;;;;;;;14.97;10.40;;;4.00;58.10;;;;;;5032645;28;20041;-70
2021/03/08 03:01:49;;;;;;;16.47;10.90;;;4.00;58.00;;;;;;5032972;28;20026;-69
2021/03/08 03:04:16;;;;;;;17.13;10.40;;;4.00;57.90;;;;;;5032760;28;20025;-70
2021/03/08 03:06:45;;;;;;;18.67;10.97;;;4.00;57.80;;;;;;5033048;28;20052;-70
2021/03/08 03:09:13;;;;;;;15.53;10.70;;;3.90;57.70;;;;;;5033154;28;20100;-69
2021/03/08 03:11:46;;;;;;;15.50;10.03;;;3.90;57.70;;;;;;5033099;28;20022;-69
2021/03/08 03:14:13;;;;;;;15.87;9.70;;;3.90;58.20;;;;;;5032716;28;20030;-70
2021/03/08 03:16:41;;;;;;;15.90;10.33;;;3.90;58.50;;;;;;5032857;28;20044;-70
2021/03/08 03:19:08;;;;;;;15.10;10.27;;;3.90;58.40;;;;;;5032805;28;20132;-70
2021/03/08 03:21:36;;;;;;;15.17;9.87;;;3.90;58.30;;;;;;5033100;28;20026;-70
2021/03/08 03:24:02;;;;;;;16.03;10.40;;;3.90;58.20;;;;;;5037152;28;20030;-70
2021/03/08 03:26:29;;;;;;;14.73;9.90;;;3.80;58.30;;;;;;5036534;28;20030;-70
2021/03/08 03:28:56;;;;;;;14.23;9.90;;;3.80;58.40;;;;;;5036838;28;20057;-70
2021/03/08 03:31:23;;;;;;;15.60;9.57;;;3.80;58.80;;;;;;5036868;28;20033;-70
2021/03/08 03:33:50;;;;;;;14.50;9.13;;;3.80;58.80;;;;;;5036765;28;20381;-70
2021/03/08 03:36:16;;;;;;;14.93;9.20;;;3.80;59.60;;;;;;5036455;28;20079;-71
2021/03/08 03:38:44;;;;;;;13.57;9.07;;;3.80;59.20;;;;;;5036551;28;20041;-69
2021/03/08 03:41:10;;;;;;;12.77;8.93;;;3.80;59.10;;;;;;5036375;28;20029;-69
2021/03/08 03:43:36;;;;;;;11.87;8.67;;;3.80;59.00;;;;;;5036385;28;20078;-70
2021/03/08 03:46:03;;;;;;;13.47;9.20;;;3.80;58.80;;;;;;5036549;28;20037;-69
2021/03/08 03:48:31;;;;;;;16.83;9.80;;;3.90;58.60;;;;;;5036279;28;20116;-69
2021/03/08 03:50:57;;;;;;;13.40;9.07;;;3.90;58.50;;;;;;5036251;28;20431;-69
2021/03/08 03:53:23;;;;;;;15.33;9.27;;;3.90;58.30;;;;;;5036191;28;20025;-69
2021/03/08 03:55:48;;;;;;;12.37;8.83;;;3.90;58.30;;;;;;5036512;28;20498;-69
2021/03/08 03:58:24;;;;;;;13.20;9.23;;;3.80;58.20;;;;;;5036213;28;20112;-69
2021/03/08 04:01:20;;;;;;;16.47;9.87;;;3.80;58.60;;;;;;5036158;28;20029;-70
2021/03/08 04:03:56;;;;;;;16.93;9.77;;;3.80;58.60;;;;;;5027945;28;20478;-68
2021/03/08 04:06:33;;;;;;;14.47;9.90;;;3.80;58.20;;;;;;5036249;28;20397;-69
2021/03/08 04:09:01;;;;;;;14.23;9.83;;;3.80;58.00;;;;;;5036199;28;20391;-70
2021/03/08 04:11:33;;;;;;;17.47;10.00;;;3.70;58.00;;;;;;5036031;28;20467;-70
2021/03/08 04:14:02;;;;;;;18.10;10.23;;;3.70;58.00;;;;;;5035866;28;20033;-70
2021/03/08 04:16:30;;;;;;;18.50;10.53;;;3.60;58.00;;;;;;5035760;28;20030;-69
2021/03/08 04:18:58;;;;;;;20.67;9.87;;;3.60;57.90;;;;;;5035521;28;20533;-69
2021/03/08 04:21:25;;;;;;;15.80;9.67;;;3.60;58.00;;;;;;5035962;28;20385;-70
2021/03/08 04:23:52;;;;;;;16.93;10.13;;;3.50;58.20;;;;;;5035871;28;20031;-70
2021/03/08 04:26:19;;;;;;;20.03;10.67;;;3.50;58.50;;;;;;5035812;28;20025;-70
2021/03/08 04:28:46;;;;;;;20.80;10.13;;;3.50;58.50;;;;;;5035600;28;20099;-69
2021/03/08 04:31:13;;;;;;;16.40;10.57;;;3.50;59.00;;;;;;5035648;28;20396;-69
2021/03/08 04:33:39;;;;;;;16.97;10.07;;;3.40;59.80;;;;;;5035197;28;20041;-70
2021/03/08 04:36:06;;;;;;;13.80;9.53;;;3.40;59.80;;;;;;5035576;28;20045;-70
2021/03/08 04:38:32;;;;;;;14.77;9.63;;;3.40;59.60;;;;;;5035186;28;20040;-70
2021/03/08 04:40:58;;;;;;;16.87;9.53;;;3.40;60.00;;;;;;5035541;28;20101;-69
2021/03/08 04:43:24;;;;;;;14.03;9.53;;;3.40;60.00;;;;;;5035588;28;20053;-70
2021/03/08 04:45:55;;;;;;;16.03;9.60;;;3.40;59.80;;;;;;5035429;28;20035;-69
2021/03/08 04:48:22;;;;;;;13.73;9.17;;;3.40;59.50;;;;;;5035102;28;20049;-70
2021/03/08 04:50:50;;;;;;;14.37;9.90;;;3.40;59.50;;;;;;5035370;28;20029;-70
2021/03/08 04:53:17;;;;;;;18.73;10.50;;;3.30;59.40;;;;;;5034933;28;20025;-69
2021/03/08 04:55:43;;;;;;;17.77;10.80;;;3.30;59.40;;;;;;5035120;28;20053;-70
2021/03/08 04:58:10;;;;;;;20.67;10.70;;;3.30;59.40;;;;;;5035093;28;20029;-68
2021/03/08 05:00:35;;;;;;;19.73;10.40;;;3.30;59.30;;;;;;5035106;28;20032;-70
2021/03/08 05:03:04;;;;;;;17.30;10.67;;;3.20;59.10;;;;;;5035053;28;20029;-74
2021/03/08 05:05:30;;;;;;;17.03;10.27;;;3.20;58.90;;;;;;5035079;28;20026;-70
2021/03/08 05:08:00;;;;;;;21.23;10.13;;;3.20;58.70;;;;;;5034975;28;20355;-69
2021/03/08 05:10:28;;;;;;;20.60;11.57;;;3.20;58.70;;;;;;5034816;28;20389;-70
2021/03/08 05:12:55;;;;;;;15.97;10.27;;;3.10;58.70;;;;;;5034807;28;20053;-69
2021/03/08 05:15:23;;;;;;;15.17;10.20;;;3.10;58.80;;;;;;5034737;28;20080;-68
2021/03/08 05:17:53;;;;;;;21.13;11.03;;;3.10;59.00;;;;;;5034494;28;20104;-69
2021/03/08 05:20:19;;;;;;;21.27;11.07;;;3.10;59.40;;;;;;5034847;28;20079;-70
2021/03/08 05:22:46;;;;;;;17.30;10.87;;;3.10;59.60;;;;;;5034644;28;20017;-70
2021/03/08 05:25:12;;;;;;;17.43;10.70;;;3.00;59.30;;;;;;5034495;28;20101;-69
2021/03/08 05:27:39;;;;;;;15.50;10.30;;;3.00;59.00;;;;;;5034563;28;20029;-69
2021/03/08 05:30:06;;;;;;;21.80;10.43;;;3.00;59.00;;;;;;5034475;28;20029;-69
2021/03/08 05:32:41;;;;;;;18.13;10.80;;;2.90;58.90;;;;;;5034241;28;20029;-68
2021/03/08 05:35:08;;;;;;;19.17;11.03;;;2.90;59.10;;;;;;5034146;28;20029;-69
2021/03/08 05:37:37;;;;;;;21.43;11.03;;;2.90;59.10;;;;;;5034294;28;20074;-69
2021/03/08 05:40:10;;;;;;;16.27;10.80;;;2.90;59.20;;;;;;5034342;28;20034;-69
2021/03/08 05:42:38;;;;;;;13.73;10.57;;;2.80;59.40;;;;;;5034435;28;20026;-69
2021/03/08 05:45:09;;;;;;;20.53;11.33;;;2.80;59.60;;;;;;5033429;28;20029;-69
2021/03/08 05:47:53;;;;;;;17.80;10.87;;;2.80;59.80;;;;;;5034181;28;20470;-69
2021/03/08 05:50:34;;;;;;;21.33;11.07;;;2.80;59.90;;;;;;5033913;28;20025;-69
2021/03/08 05:53:21;;;;;;;18.90;10.67;;;2.80;59.90;;;;;;5033766;28;20036;-69
2021/03/08 05:56:08;;;;;;;19.17;11.07;;;2.90;60.10;;;;;;5033821;28;20037;-69
2021/03/08 05:59:07;;;;;;;22.50;10.90;;;2.80;60.10;;;;;;5033813;28;20037;-69
2021/03/08 06:01:58;;;;;;;20.03;11.00;;;2.80;60.30;;;;;;5034085;28;20049;-69
2021/03/08 06:04:37;;;;;;;21.77;11.83;;;2.80;60.60;;;;;;5034136;28;20509;-69
2021/03/08 06:07:25;;;;;;;22.17;12.17;;;2.90;61.10;;;;;;5033656;28;20037;-69
2021/03/08 06:10:02;;;;;;;19.77;11.33;;;2.90;61.30;;;;;;5033423;28;20021;-69
2021/03/08 06:12:35;;;;;;;20.77;11.80;;;2.90;61.40;;;;;;5033634;28;20033;-69
2021/03/08 06:15:07;;;;;;;18.10;11.53;;;2.90;61.50;;;;;;5033805;28;20021;-69
2021/03/08 06:17:33;;;;;;;23.33;11.83;;;2.90;61.50;;;;;;5032288;28;20028;-71
2021/03/08 06:20:00;;;;;;;18.77;11.43;;;2.90;61.70;;;;;;5033094;28;20109;-74
2021/03/08 06:22:26;;;;;;;17.47;11.07;;;3.00;61.80;;;;;;5031726;28;20384;-69
2021/03/08 06:24:54;;;;;;;25.53;11.27;;;3.00;61.90;;;;;;5032742;28;20052;-70
2021/03/08 06:27:21;;;;;;;18.20;11.50;;;3.00;61.90;;;;;;5035630;28;20068;-69
2021/03/08 06:29:47;;;;;;;21.80;11.70;;;3.00;61.80;;;;;;5031937;28;20026;-74
2021/03/08 06:32:12;;;;;;;20.47;11.90;;;3.10;61.60;;;;;;5033095;28;20032;-70
2021/03/08 06:34:40;;;;;;;19.13;12.00;;;3.10;61.60;;;;;;5033064;28;20037;-73
2021/03/08 06:37:08;;;;;;;23.57;11.93;;;3.10;61.70;;;;;;5031971;28;20061;-71
2021/03/08 06:39:36;;;;;;;25.97;12.43;;;3.20;61.70;;;;;;5032941;28;20033;-69
2021/03/08 06:42:03;;;;;;;27.17;13.13;;;3.30;61.20;;;;;;5032862;28;20533;-70
2021/03/08 06:44:29;;;;;;;24.40;14.27;;;3.20;61.30;;;;;;5031508;28;20451;-69
2021/03/08 06:46:56;;;;;;;28.80;14.87;;;3.30;61.40;;;;;;5032735;28;20018;-70
2021/03/08 06:49:22;;;;;;;26.03;15.67;;;3.30;61.40;;;;;;5032236;28;20025;-70
2021/03/08 06:52:04;;;;;;;26.87;15.83;;;3.30;61.50;;;;;;5032800;28;20025;-70
2021/03/08 06:54:30;;;;;;;31.40;14.80;;;3.30;61.70;;;;;;5033079;28;20050;-69
2021/03/08 06:56:56;;;;;;;34.10;16.37;;;3.30;62.20;;;;;;5032884;28;20466;-69
2021/03/08 06:59:22;;;;;;;42.33;18.23;;;3.30;62.20;;;;;;5031116;28;20043;-69
2021/03/08 07:01:51;;;;;;;26.67;15.97;;;3.40;62.50;;;;;;5029455;28;20405;-69
2021/03/08 07:04:27;;;;;;;34.90;18.13;;;3.50;62.90;;;;;;5030074;28;20047;-72
2021/03/08 07:07:03;;;;;;;23.97;13.83;;;3.50;63.00;;;;;;5032301;28;20075;-72
2021/03/08 07:09:30;;;;;;;35.33;15.23;;;3.60;63.20;;;;;;5032679;28;20112;-70
2021/03/08 07:12:13;;;;;;;25.37;13.67;;;3.70;63.60;;;;;;5032858;28;20022;-69
2021/03/08 07:14:40;;;;;;;24.90;13.10;;;3.80;63.50;;;;;;5032492;28;20030;-69
2021/03/08 07:17:28;;;;;;;24.50;12.87;;;3.90;63.20;;;;;;5032275;28;20101;-71
2021/03/08 07:19:56;;;;;;;26.03;13.80;;;4.10;62.80;;;;;;5027029;28;20055;-70
2021/03/08 07:22:43;;;;;;;29.30;13.23;;;4.10;62.50;;;;;;5031474;28;20056;-71
2021/03/08 07:25:19;;;;;;;23.03;14.77;;;4.20;62.50;;;;;;5029499;28;20136;-70
2021/03/08 07:27:48;;;;;;;24.63;13.30;;;4.30;62.40;;;;;;5026268;28;20536;-72
2021/03/08 07:30:16;;;;;;;26.30;13.97;;;4.40;62.50;;;;;;5031657;28;20426;-71
2021/03/08 07:32:55;;;;;;;27.67;14.93;;;4.40;62.00;;;;;;5032183;28;20520;-71
2021/03/08 07:35:38;;;;;;;27.73;14.53;;;4.50;61.60;;;;;;5030022;28;20033;-70
2021/03/08 07:38:05;;;;;;;30.50;15.50;;;4.60;61.50;;;;;;5029663;28;20564;-70
2021/03/08 07:40:32;;;;;;;32.60;15.30;;;4.70;61.60;;;;;;5031077;28;20026;-70
2021/03/08 07:42:58;;;;;;;29.30;15.43;;;4.80;61.70;;;;;;5049717;28;20562;-70
2021/03/08 07:45:44;;;;;;;27.70;15.80;;;4.90;61.80;;;;;;5052129;28;20024;-70
2021/03/08 07:48:15;;;;;;;27.00;15.57;;;5.00;61.80;;;;;;5052281;28;20021;-69
2021/03/08 07:50:43;;;;;;;28.97;14.20;;;5.10;62.00;;;;;;5051764;28;20101;-72
2021/03/08 07:53:36;;;;;;;27.03;15.23;;;5.20;61.90;;;;;;5051978;28;20021;-68
2021/03/08 07:56:06;;;;;;;23.45;14.88;;;5.30;61.80;;;;;;5049956;28;20049;-69
2021/03/08 07:58:34;;;;;;;30.33;15.67;;;5.40;61.50;;;;;;5051930;28;20120;-69
2021/03/08 08:01:02;;;;;;;23.63;14.60;;;5.40;61.10;;;;;;5052086;28;20048;-68
2021/03/08 08:03:28;;;;;;;21.50;14.73;;;5.60;61.40;;;;;;5052140;28;20194;-69
2021/03/08 08:06:00;;;;;;;30.20;15.73;;;5.70;60.80;;;;;;5051541;28;20013;-69
2021/03/08 08:08:28;;;;;;;23.30;14.30;;;5.70;60.80;;;;;;5041960;28;20033;-72
2021/03/08 08:10:55;;;;;;;20.10;14.27;;;5.80;60.70;;;;;;5035459;28;20017;-69
2021/03/08 08:13:29;;;;;;;18.60;12.63;;;6.00;60.90;;;;;;5034169;28;20187;-69
2021/03/08 08:15:57;;;;;;;21.00;13.57;;;6.00;60.10;;;;;;5035631;28;20021;-69
2021/03/08 08:18:26;;;;;;;22.00;13.93;;;6.20;59.90;;;;;;5034083;28;20029;-69
2021/03/08 08:20:55;;;;;;;18.80;12.77;;;6.20;59.30;;;;;;5035030;28;20026;-70
2021/03/08 08:23:27;;;;;;;25.27;14.63;;;6.30;58.90;;;;;;5035506;28;20025;-72
2021/03/08 08:25:53;;;;;;;22.08;13.77;;;6.40;58.80;;;;;;5035624;28;20057;-71
2021/03/08 08:28:19;;;;;;;24.03;13.60;;;6.50;58.60;;;;;;5033367;28;20045;-69
2021/03/08 08:30:55;;;;;;;21.73;13.90;;;6.60;58.40;;;;;;5035036;28;20021;-69
2021/03/08 08:33:30;;;;;;;24.10;14.40;;;6.70;58.10;;;;;;5035134;28;20087;-69
2021/03/08 08:36:13;;;;;;;23.07;14.17;;;6.80;57.90;;;;;;5035155;28;20039;-71
2021/03/08 08:39:01;;;;;;;18.33;12.53;;;6.90;57.50;;;;;;5035125;28;20039;-70
2021/03/08 08:41:29;;;;;;;21.27;14.00;;;7.00;56.80;;;;;;5035306;28;20371;-70
2021/03/08 08:44:07;;;;;;;25.37;12.77;;;7.10;56.70;;;;;;5034841;28;20021;-69
2021/03/08 08:46:35;;;;;;;20.43;11.57;;;7.20;57.40;;;;;;5034822;28;20018;-70
2021/03/08 08:49:03;;;;;;;16.83;12.00;;;7.30;56.80;;;;;;5035099;28;20025;-70
2021/03/08 08:51:51;;;;;;;19.27;12.17;;;7.40;56.30;;;;;;5034944;28;20017;-70
2021/03/08 08:54:32;;;;;;;22.40;13.13;;;7.50;56.40;;;;;;5034944;28;20041;-70
2021/03/08 08:57:09;;;;;;;18.23;12.30;;;7.50;56.10;;;;;;5033581;28;20041;-69
2021/03/08 08:59:36;;;;;;;20.47;13.40;;;7.70;56.10;;;;;;5035307;28;20037;-70
2021/03/08 09:02:25;;;;;;;20.07;12.93;;;7.70;56.10;;;;;;5035196;28;20429;-70
2021/03/08 09:04:51;;;;;;;20.20;13.60;;;7.80;56.50;;;;;;5035302;28;20021;-70
2021/03/08 09:07:23;;;;;;;20.17;13.13;;;7.90;56.10;;;;;;5035119;28;20033;-71
2021/03/08 09:09:49;;;;;;;25.20;12.88;;;8.00;55.70;;;;;;5035137;28;20030;-70
2021/03/08 09:13:07;;;;;;;23.07;12.73;;;8.10;55.80;;;;;;5034999;28;20029;-71
2021/03/08 09:15:32;;;;;;;17.57;12.70;;;8.20;55.70;;;;;;4973801;28;20487;-70
2021/03/08 09:18:03;;;;;;;21.37;13.00;;;8.30;55.90;;;;;;4973512;28;20082;-70
2021/03/08 09:20:31;;;;;;;19.43;13.13;;;8.40;55.40;;;;;;5009852;28;20455;-71
2021/03/08 09:23:00;;;;;;;17.70;12.97;;;8.40;55.70;;;;;;5034542;28;20053;-69
2021/03/08 09:25:31;;;;;;;18.57;13.33;;;8.60;56.00;;;;;;5034474;28;20061;-70
2021/03/08 09:28:10;;;;;;;17.37;13.10;;;8.70;56.50;;;;;;5034756;28;20036;-70
2021/03/08 09:30:43;;;;;;;19.47;12.80;;;8.70;56.60;;;;;;5031976;28;20029;-69
2021/03/08 09:33:15;;;;;;;19.25;13.95;;;8.90;56.00;;;;;;5025894;28;20037;-69
2021/03/08 09:35:52;;;;;;;21.95;14.55;;;9.00;55.40;;;;;;5022851;28;20080;-72
2021/03/08 09:38:22;;;;;;;20.93;15.90;;;9.00;55.00;;;;;;5023055;28;20490;-72
2021/03/08 09:40:50;;;;;;;19.37;15.57;;;9.10;55.10;;;;;;5024816;28;20505;-69
2021/03/08 09:43:38;;;;;;;22.37;14.30;;;9.20;55.10;;;;;;5022213;28;20060;-71
2021/03/08 09:46:06;;;;;;;19.37;15.67;;;9.30;55.00;;;;;;5014404;28;20076;-71
2021/03/08 09:48:36;;;;;;;23.37;16.20;;;9.30;54.20;;;;;;5014367;28;20033;-71
2021/03/08 09:51:14;;;;;;;20.07;16.27;;;9.40;53.00;;;;;;5014493;28;20022;-72
2021/03/08 09:53:45;;;;;;;18.13;14.87;;;9.40;53.40;;;;;;5014027;28;20030;-71
2021/03/08 09:56:16;;;;;;;24.93;16.40;;;9.60;53.50;;;;;;5019424;28;20128;-71
2021/03/08 09:58:43;;;;;;;20.70;16.03;;;9.60;53.90;;;;;;5033968;28;20061;-71
2021/03/08 10:01:14;;;;;;;21.37;17.40;;;9.70;53.20;;;;;;5033861;28;20061;-71
2021/03/08 10:03:40;;;;;;;22.57;17.07;;;9.80;53.30;;;;;;5033721;28;20017;-70
2021/03/08 10:06:06;;;;;;;24.57;16.77;;;9.90;51.60;;;;;;5033560;28;20036;-71
2021/03/08 10:08:32;;;;;;;18.73;15.83;;;10.00;51.40;;;;;;5033709;28;20116;-70
2021/03/08 10:11:00;;;;;;;21.60;15.47;;;10.00;50.40;;;;;;5033051;28;20018;-70
2021/03/08 10:13:26;;;;;;;20.13;15.60;;;10.10;51.50;;;;;;5026783;28;20112;-70
2021/03/08 10:15:58;;;;;;;21.57;15.43;;;10.20;52.10;;;;;;5022921;28;20026;-71
2021/03/08 10:18:29;;;;;;;18.87;16.20;;;10.30;51.90;;;;;;5020104;28;20066;-70
2021/03/08 10:21:00;;;;;;;21.73;16.20;;;10.40;52.10;;;;;;5020975;28;20264;-71
2021/03/08 10:23:26;;;;;;;21.40;16.00;;;10.50;51.30;;;;;;5023756;28;20061;-71
2021/03/08 10:25:52;;;;;;;21.07;16.83;;;10.60;51.10;;;;;;5022989;28;20061;-70
2021/03/08 10:28:19;;;;;;;22.57;18.03;;;10.80;51.40;;;;;;5024757;28;20052;-71
2021/03/08 10:30:46;;;;;;;20.43;17.57;;;10.80;50.00;;;;;;5032634;28;20025;-71
2021/03/08 10:33:17;;;;;;;22.50;17.23;;;10.90;49.20;;;;;;5032918;28;20025;-70
2021/03/08 10:35:45;;;;;;;19.50;15.97;;;10.90;50.20;;;;;;5033060;28;20025;-70
2021/03/08 10:38:13;;;;;;;20.40;16.20;;;11.00;51.30;;;;;;5032601;28;20040;-69
2021/03/08 10:40:40;;;;;;;20.70;17.05;;;11.10;50.80;;;;;;5033430;28;20028;-69
2021/03/08 10:43:07;;;;;;;20.43;16.53;;;11.20;50.70;;;;;;5032330;28;20033;-69
2021/03/08 10:45:33;;;;;;;20.05;15.57;;;11.30;51.70;;;;;;5031310;28;20178;-69
2021/03/08 10:48:12;;;;;;;21.65;16.65;;;11.40;50.10;;;;;;5032439;28;20025;-70
2021/03/08 10:50:50;;;;;;;23.13;16.90;;;11.50;50.60;;;;;;5033002;28;20069;-69
2021/03/08 10:53:17;;;;;;;21.13;16.55;;;11.60;48.50;;;;;;5033079;28;20104;-72
